Time;durP1;ratioP1;P1;durP2;ratioP2;P2;SDS_P1;SDS_P2;PMS_P1;PMS_P2;Temp;Humidity;BMP_temperature;BMP_pressure;BME280_temperature;BME280_humidity;BME280_pressure;Samples;Min_cycle;Max_cycle;Signal;HPM_P1;HPM_P2
2023/03/04 00:01:39;;;;;;;72.25;52.10;;;204.90;2252.80;;;;;;5052359;28;20398;-79
2023/03/04 00:04:05;;;;;;;65.88;47.40;;;205.00;2252.80;;;;;;5050400;28;20036;-80
2023/03/04 00:06:31;;;;;;;84.72;54.83;;;204.90;2252.80;;;;;;5032311;28;20036;-82
2023/03/04 00:08:56;;;;;;;71.63;47.35;;;204.90;2252.80;;;;;;5032230;28;20050;-82
2023/03/04 00:11:22;;;;;;;65.53;46.58;;;204.80;2252.80;;;;;;5033057;28;20056;-81
2023/03/04 00:13:48;;;;;;;68.32;48.42;;;204.90;2252.80;;;;;;5032460;28;20052;-83
2023/03/04 00:16:14;;;;;;;59.53;43.80;;;204.90;2252.80;;;;;;5033367;28;20076;-82
2023/03/04 00:18:40;;;;;;;50.40;37.95;;;204.80;2252.80;;;;;;5032401;28;20029;-81
2023/03/04 00:21:05;;;;;;;46.83;36.95;;;204.90;2252.80;;;;;;5033345;28;20033;-80
2023/03/04 00:23:31;;;;;;;51.33;37.50;;;205.00;2252.80;;;;;;5031978;28;20814;-82
2023/03/04 00:25:57;;;;;;;95.50;59.42;;;204.90;2252.80;;;;;;5032231;28;20040;-80
2023/03/04 00:28:23;;;;;;;76.35;49.25;;;204.80;2252.80;;;;;;5042521;28;20029;-80
2023/03/04 00:30:48;;;;;;;76.97;48.65;;;204.80;2252.80;;;;;;5051759;28;20033;-81
2023/03/04 00:33:14;;;;;;;58.28;41.53;;;204.80;2252.80;;;;;;5051271;28;20048;-80
2023/03/04 00:35:40;;;;;;;56.42;38.30;;;204.90;2252.80;;;;;;5052009;28;20025;-83
2023/03/04 00:38:06;;;;;;;52.33;37.55;;;205.00;2252.80;;;;;;5051478;28;20025;-82
2023/03/04 00:40:32;;;;;;;51.83;39.35;;;205.00;2252.80;;;;;;5053445;28;20036;-78
2023/03/04 00:42:57;;;;;;;50.90;36.58;;;205.00;2252.80;;;;;;5051933;28;20362;-80
2023/03/04 00:45:23;;;;;;;49.10;35.05;;;205.00;2252.80;;;;;;5051747;28;20025;-81
2023/03/04 00:47:49;;;;;;;55.55;37.72;;;205.00;2252.80;;;;;;5052493;28;20087;-81
2023/03/04 00:50:15;;;;;;;72.85;48.20;;;204.90;2252.80;;;;;;5055958;28;20040;-82
2023/03/04 00:52:41;;;;;;;57.17;38.35;;;204.80;2252.80;;;;;;5057277;28;20028;-82
2023/03/04 00:55:08;;;;;;;51.33;37.78;;;204.80;2252.80;;;;;;5055940;28;20036;-82
2023/03/04 00:57:33;;;;;;;56.65;39.50;;;204.90;2252.80;;;;;;5057079;28;20053;-82
2023/03/04 00:59:59;;;;;;;58.08;43.80;;;205.00;2252.80;;;;;;5055438;28;20142;-81
2023/03/04 01:02:25;;;;;;;68.45;50.40;;;205.00;2252.80;;;;;;5055791;28;20427;-81
2023/03/04 01:04:51;;;;;;;63.97;47.85;;;205.00;2252.80;;;;;;5055860;28;20116;-80
2023/03/04 01:07:17;;;;;;;62.42;45.00;;;205.00;2252.80;;;;;;5055128;28;20048;-82
2023/03/04 01:09:42;;;;;;;55.83;42.67;;;205.00;2252.80;;;;;;5055679;28;20386;-81
2023/03/04 01:12:08;;;;;;;60.42;41.45;;;205.10;2252.80;;;;;;5055614;28;20029;-81
2023/03/04 01:14:34;;;;;;;68.10;45.80;;;205.10;2252.80;;;;;;5055217;28;20025;-80
2023/03/04 01:17:00;;;;;;;71.35;50.65;;;205.10;2252.80;;;;;;5055546;28;20112;-81
2023/03/04 01:19:26;;;;;;;74.78;52.38;;;205.20;2252.80;;;;;;5056313;28;20140;-81
2023/03/04 01:21:51;;;;;;;122.18;80.40;;;205.10;2252.80;;;;;;5055246;28;20037;-79
2023/03/04 01:24:18;;;;;;;87.28;58.90;;;205.00;2252.80;;;;;;5055523;28;20032;-78
2023/03/04 01:26:43;;;;;;;80.43;55.97;;;205.00;2252.80;;;;;;5054886;28;20033;-79
2023/03/04 01:29:09;;;;;;;74.38;48.65;;;204.90;2252.80;;;;;;5056504;28;20114;-81
2023/03/04 01:31:35;;;;;;;66.25;46.72;;;204.90;2252.80;;;;;;5056449;28;20466;-78
2023/03/04 01:34:00;;;;;;;70.78;48.85;;;205.00;2252.80;;;;;;5054938;28;20025;-79
2023/03/04 01:36:26;;;;;;;108.32;69.78;;;205.00;2252.80;;;;;;5056257;28;20024;-78
2023/03/04 01:38:52;;;;;;;117.65;77.05;;;205.00;2252.80;;;;;;5055259;28;20359;-80
2023/03/04 01:41:26;;;;;;;108.93;73.57;;;205.00;2252.80;;;;;;5054764;28;20481;-80
2023/03/04 01:43:55;;;;;;;110.22;70.00;;;205.00;2252.80;;;;;;5055101;28;20024;-79
2023/03/04 01:46:21;;;;;;;97.35;65.72;;;205.00;2252.80;;;;;;5054898;28;20025;-82
2023/03/04 01:48:47;;;;;;;97.10;64.90;;;205.00;2252.80;;;;;;5054598;28;20060;-79
2023/03/04 01:51:15;;;;;;;101.85;70.03;;;205.00;2252.80;;;;;;5054716;28;20063;-78
2023/03/04 01:53:42;;;;;;;89.30;57.80;;;204.90;2252.80;;;;;;5056061;28;20021;-80
2023/03/04 01:56:17;;;;;;;85.93;56.38;;;204.90;2252.80;;;;;;5054515;28;20055;-80
2023/03/04 01:58:43;;;;;;;85.00;57.20;;;204.80;2252.80;;;;;;5054779;28;20386;-79
2023/03/04 02:01:11;;;;;;;79.22;55.35;;;204.80;2252.80;;;;;;5054915;28;20025;-80
2023/03/04 02:03:38;;;;;;;89.22;58.72;;;204.80;2252.80;;;;;;5054661;28;20052;-81
2023/03/04 02:06:04;;;;;;;109.95;62.80;;;204.90;2252.80;;;;;;5055829;28;20420;-81
2023/03/04 02:08:30;;;;;;;90.57;58.03;;;204.80;2252.80;;;;;;5054004;28;20048;-80
2023/03/04 02:10:55;;;;;;;106.43;71.20;;;204.80;2252.80;;;;;;5054504;28;20032;-79
2023/03/04 02:13:22;;;;;;;103.45;71.40;;;204.80;2252.80;;;;;;5055999;28;20462;-80
2023/03/04 02:15:47;;;;;;;89.10;57.47;;;204.90;2252.80;;;;;;5054070;28;20086;-82
2023/03/04 02:18:23;;;;;;;78.93;52.78;;;204.90;2252.80;;;;;;5055769;28;20475;-82
2023/03/04 02:20:51;;;;;;;82.72;56.00;;;204.80;2252.80;;;;;;5054343;28;20040;-81
2023/03/04 02:23:20;;;;;;;74.82;54.60;;;180.10;2252.80;;;;;;5054260;28;20560;-81
2023/03/04 02:26:21;;;;;;;71.45;50.70;;;180.10;2252.80;;;;;;5054387;28;20118;-80
2023/03/04 02:28:50;;;;;;;71.57;52.28;;;180.10;2252.80;;;;;;5054190;28;20033;-80
2023/03/04 02:31:21;;;;;;;71.03;49.80;;;180.00;2252.80;;;;;;5055138;28;20036;-82
2023/03/04 02:33:47;;;;;;;66.53;49.28;;;180.10;2252.80;;;;;;5055344;28;20090;-82
2023/03/04 02:36:13;;;;;;;61.95;43.22;;;180.00;2252.80;;;;;;5053734;28;20463;-82
2023/03/04 02:38:38;;;;;;;57.10;38.58;;;180.10;2252.80;;;;;;5053974;28;20032;-81
2023/03/04 02:41:08;;;;;;;54.03;38.17;;;180.10;2252.80;;;;;;5054063;28;20382;-80
2023/03/04 02:43:34;;;;;;;57.63;39.97;;;180.10;2252.80;;;;;;5053614;28;20127;-80
2023/03/04 02:45:59;;;;;;;53.97;38.08;;;204.80;2252.80;;;;;;5053822;28;20064;-81
2023/03/04 02:48:25;;;;;;;57.20;42.38;;;180.10;2252.80;;;;;;5054227;28;20029;-79
2023/03/04 02:50:53;;;;;;;71.05;45.83;;;180.00;2252.80;;;;;;5051682;28;20166;-80
2023/03/04 02:53:19;;;;;;;68.43;46.90;;;180.10;2252.80;;;;;;5054087;28;20053;-82
2023/03/04 02:55:46;;;;;;;76.15;51.38;;;205.00;2252.80;;;;;;5052765;28;20492;-81
2023/03/04 02:58:13;;;;;;;68.78;48.45;;;204.80;2252.80;;;;;;5053242;28;20099;-81
2023/03/04 03:00:39;;;;;;;57.40;43.22;;;204.80;2252.80;;;;;;5053355;28;20039;-80
2023/03/04 03:03:06;;;;;;;70.90;48.03;;;205.10;2252.80;;;;;;5052698;28;20037;-81
2023/03/04 03:05:33;;;;;;;64.20;44.75;;;180.10;2252.80;;;;;;5053126;28;20032;-82
2023/03/04 03:08:00;;;;;;;57.40;41.97;;;180.10;2252.80;;;;;;5052976;28;20145;-82
2023/03/04 03:10:25;;;;;;;63.53;44.88;;;204.80;2252.80;;;;;;5053278;28;20421;-82
2023/03/04 03:12:52;;;;;;;56.72;40.88;;;204.80;2252.80;;;;;;5054356;28;20025;-81
2023/03/04 03:15:18;;;;;;;50.55;39.00;;;204.80;2252.80;;;;;;5054623;28;20033;-81
2023/03/04 03:17:44;;;;;;;57.53;39.40;;;204.80;2252.80;;;;;;5053107;28;20060;-81
2023/03/04 03:20:12;;;;;;;47.45;35.80;;;204.90;2252.80;;;;;;5052766;28;20032;-80
2023/03/04 03:22:38;;;;;;;47.15;35.88;;;204.90;2252.80;;;;;;5054535;28;20040;-82
2023/03/04 03:25:05;;;;;;;46.35;34.10;;;204.90;2252.80;;;;;;5053110;28;20033;-80
2023/03/04 03:27:31;;;;;;;48.15;34.03;;;204.90;2252.80;;;;;;5051812;28;20485;-81
2023/03/04 03:29:56;;;;;;;54.08;40.35;;;204.90;2252.80;;;;;;5052243;28;20032;-81
2023/03/04 03:32:22;;;;;;;51.70;39.28;;;204.90;2252.80;;;;;;5053245;28;20028;-81
2023/03/04 03:34:48;;;;;;;50.95;34.80;;;204.90;2252.80;;;;;;5077350;28;20012;-82
2023/03/04 03:37:14;;;;;;;44.30;33.35;;;204.90;2252.80;;;;;;5076953;28;20012;-77
2023/03/04 03:39:40;;;;;;;48.30;36.05;;;205.00;2252.80;;;;;;5073430;28;20033;-80
2023/03/04 03:42:06;;;;;;;51.95;34.13;;;204.90;2252.80;;;;;;5052966;28;20087;-81
2023/03/04 03:44:32;;;;;;;55.85;36.05;;;205.20;2252.80;;;;;;5053217;28;20036;-80
2023/03/04 03:46:58;;;;;;;52.78;36.38;;;204.90;2252.80;;;;;;5054326;28;20022;-81
2023/03/04 03:49:23;;;;;;;47.97;34.35;;;204.90;2252.80;;;;;;5053035;28;20048;-81
2023/03/04 03:51:49;;;;;;;44.63;32.00;;;204.90;2252.80;;;;;;5052528;28;20102;-81
2023/03/04 03:54:15;;;;;;;46.97;32.50;;;205.00;2252.80;;;;;;5053865;28;20021;-80
2023/03/04 03:56:40;;;;;;;45.47;31.40;;;205.00;2252.80;;;;;;5052630;28;20497;-81
2023/03/04 03:59:06;;;;;;;44.28;32.17;;;205.00;2252.80;;;;;;5052459;28;20574;-80
2023/03/04 04:01:32;;;;;;;45.45;32.40;;;205.00;2252.80;;;;;;5053423;28;20033;-81
2023/03/04 04:03:58;;;;;;;51.75;35.55;;;204.90;2252.80;;;;;;5052386;28;20063;-80
2023/03/04 04:06:24;;;;;;;54.92;38.10;;;204.90;2252.80;;;;;;5052442;28;20132;-81
2023/03/04 04:08:50;;;;;;;57.17;38.30;;;205.00;2252.80;;;;;;5053410;28;20461;-80
2023/03/04 04:11:16;;;;;;;51.65;36.55;;;204.90;2252.80;;;;;;5052249;28;20033;-82
2023/03/04 04:13:42;;;;;;;48.90;36.95;;;204.80;2252.80;;;;;;5052355;28;20061;-81
2023/03/04 04:16:09;;;;;;;52.13;38.60;;;204.80;2252.80;;;;;;5051994;28;20063;-82
2023/03/04 04:18:35;;;;;;;56.45;39.55;;;204.80;2252.80;;;;;;5052278;28;20029;-81
2023/03/04 04:21:01;;;;;;;56.05;39.50;;;204.80;2252.80;;;;;;5053384;28;20454;-81
2023/03/04 04:23:27;;;;;;;55.65;40.08;;;204.80;2252.80;;;;;;5051417;28;20040;-81
2023/03/04 04:25:56;;;;;;;46.92;32.33;;;204.80;2252.80;;;;;;5053140;28;20544;-80
2023/03/04 04:28:22;;;;;;;44.67;30.40;;;180.10;2252.80;;;;;;5051912;28;20032;-82
2023/03/04 04:30:48;;;;;;;40.47;29.77;;;179.90;2252.80;;;;;;5052205;28;20033;-81
2023/03/04 04:33:14;;;;;;;44.00;32.20;;;179.80;2252.80;;;;;;5052219;28;20406;-82
2023/03/04 04:35:40;;;;;;;47.88;34.38;;;179.80;2252.80;;;;;;5052001;28;20482;-82
2023/03/04 04:38:08;;;;;;;50.78;34.97;;;179.90;2252.80;;;;;;5052126;28;20028;-81
2023/03/04 04:40:34;;;;;;;53.25;34.17;;;179.80;2252.80;;;;;;5051987;28;20493;-82
2023/03/04 04:42:59;;;;;;;46.03;31.48;;;179.80;2252.80;;;;;;5051814;28;20025;-82
2023/03/04 04:45:25;;;;;;;45.17;32.30;;;179.80;2252.80;;;;;;5052100;28;20095;-82
2023/03/04 04:47:52;;;;;;;44.08;30.20;;;179.80;2252.80;;;;;;5051964;28;20056;-81
2023/03/04 04:50:18;;;;;;;45.10;31.50;;;180.00;2252.80;;;;;;5044099;28;20037;-80
2023/03/04 04:52:43;;;;;;;39.42;29.52;;;179.80;2252.80;;;;;;5031544;28;20558;-81
2023/03/04 04:55:09;;;;;;;45.38;32.42;;;179.80;2252.80;;;;;;5031396;28;20083;-80
2023/03/04 04:57:35;;;;;;;43.40;31.75;;;180.00;2252.80;;;;;;5032975;28;20101;-81
2023/03/04 05:00:02;;;;;;;47.95;33.70;;;180.00;2252.80;;;;;;5032078;28;20120;-81
2023/03/04 05:02:28;;;;;;;49.65;33.35;;;180.10;2252.80;;;;;;5031900;28;20081;-82
2023/03/04 05:04:54;;;;;;;57.65;39.42;;;180.10;2252.80;;;;;;5031717;28;20026;-80
2023/03/04 05:07:20;;;;;;;59.55;39.70;;;180.10;2252.80;;;;;;5032996;28;20033;-80
2023/03/04 05:09:46;;;;;;;50.67;37.92;;;204.80;2252.80;;;;;;5031967;28;20025;-80
2023/03/04 05:12:11;;;;;;;42.92;31.70;;;180.10;2252.80;;;;;;5032903;28;20036;-82
2023/03/04 05:14:37;;;;;;;51.90;32.28;;;180.00;2252.80;;;;;;5032778;28;20053;-81
2023/03/04 05:17:03;;;;;;;49.55;32.58;;;180.00;2252.80;;;;;;5031819;28;20026;-82
2023/03/04 05:19:28;;;;;;;45.83;33.53;;;180.10;2252.80;;;;;;5032560;28;20068;-81
2023/03/04 05:21:54;;;;;;;52.92;35.13;;;180.10;2252.80;;;;;;5031762;28;20030;-80
2023/03/04 05:24:20;;;;;;;53.75;35.78;;;180.10;2252.80;;;;;;5031455;28;20026;-80
2023/03/04 05:26:46;;;;;;;52.95;38.25;;;204.80;2252.80;;;;;;5033035;28;20025;-82
2023/03/04 05:29:12;;;;;;;56.08;39.20;;;180.10;2252.80;;;;;;5031781;28;20470;-79
2023/03/04 05:31:37;;;;;;;62.67;42.65;;;204.80;2252.80;;;;;;5032780;28;20059;-82
2023/03/04 05:34:03;;;;;;;57.85;41.85;;;180.10;2252.80;;;;;;5032737;28;20428;-80
2023/03/04 05:36:29;;;;;;;51.92;37.55;;;180.00;2252.80;;;;;;5035965;28;20026;-80
2023/03/04 05:38:55;;;;;;;56.25;39.38;;;180.10;2252.80;;;;;;5034862;28;20061;-80
2023/03/04 05:41:21;;;;;;;70.38;49.10;;;180.10;2252.80;;;;;;5035199;28;20025;-81
2023/03/04 05:43:48;;;;;;;66.65;43.45;;;180.10;2252.80;;;;;;5036365;28;20029;-80
2023/03/04 05:46:16;;;;;;;64.45;43.50;;;180.10;2252.80;;;;;;5034787;28;20026;-80
2023/03/04 05:48:42;;;;;;;68.35;45.30;;;204.80;2252.80;;;;;;5051651;28;20108;-79
2023/03/04 05:51:08;;;;;;;60.40;43.13;;;180.10;2252.80;;;;;;5036204;28;20042;-80
2023/03/04 05:53:38;;;;;;;59.92;41.45;;;180.10;2252.80;;;;;;5034773;28;20025;-81
2023/03/04 05:56:09;;;;;;;48.40;34.75;;;180.00;2252.80;;;;;;5034925;28;20022;-81
2023/03/04 05:58:35;;;;;;;42.55;31.85;;;180.00;2252.80;;;;;;5034732;28;20029;-82
2023/03/04 06:01:01;;;;;;;298.13;164.25;;;180.00;2252.80;;;;;;5035439;28;20462;-81
2023/03/04 06:03:27;;;;;;;125.63;85.38;;;179.90;2252.80;;;;;;5034496;28;20040;-82
2023/03/04 06:05:53;;;;;;;648.53;390.90;;;179.80;2252.80;;;;;;5034692;28;20075;-81
2023/03/04 06:08:18;;;;;;;286.73;174.65;;;180.00;2252.80;;;;;;5034210;28;20045;-80
2023/03/04 06:10:44;;;;;;;167.38;110.07;;;180.00;2252.80;;;;;;5034583;28;20040;-82
2023/03/04 06:13:10;;;;;;;241.55;163.48;;;180.10;2252.80;;;;;;5034567;28;20034;-80
2023/03/04 06:15:38;;;;;;;93.55;66.53;;;180.10;2252.80;;;;;;5034587;28;20479;-81
2023/03/04 06:18:05;;;;;;;83.45;64.95;;;179.90;2252.80;;;;;;5035686;28;20030;-80
2023/03/04 06:20:31;;;;;;;63.35;46.63;;;180.00;2252.80;;;;;;5050826;28;20033;-80
2023/03/04 06:22:56;;;;;;;51.50;38.10;;;180.10;2252.80;;;;;;5034450;28;20466;-80
2023/03/04 06:25:22;;;;;;;55.72;38.47;;;180.10;2252.80;;;;;;5034543;28;20060;-81
2023/03/04 06:27:48;;;;;;;50.90;39.30;;;204.80;2252.80;;;;;;5034124;28;20021;-80
2023/03/04 06:30:15;;;;;;;60.05;45.50;;;204.80;2252.80;;;;;;5034299;28;20029;-80
2023/03/04 06:32:43;;;;;;;62.13;47.67;;;180.10;2252.80;;;;;;5034196;28;20423;-82
2023/03/04 06:35:10;;;;;;;68.30;47.40;;;180.10;2252.80;;;;;;5033956;28;20378;-82
2023/03/04 06:37:36;;;;;;;70.82;45.03;;;180.10;2252.80;;;;;;5034105;28;20080;-80
2023/03/04 06:40:03;;;;;;;86.65;57.33;;;204.80;2252.80;;;;;;5050703;28;20087;-80
2023/03/04 06:42:29;;;;;;;74.07;48.95;;;204.80;2252.80;;;;;;5033757;28;20033;-82
2023/03/04 06:44:55;;;;;;;65.55;43.08;;;204.90;2252.80;;;;;;5035292;28;20029;-79
2023/03/04 06:47:21;;;;;;;59.50;43.40;;;205.00;2252.80;;;;;;5033389;28;20025;-80
2023/03/04 06:49:46;;;;;;;52.60;38.20;;;204.90;2252.80;;;;;;5034760;28;20084;-81
2023/03/04 06:52:12;;;;;;;54.10;39.45;;;205.00;2252.80;;;;;;5054221;28;20025;-80
2023/03/04 06:54:39;;;;;;;53.50;40.40;;;205.00;2252.80;;;;;;5054256;28;20076;-80
2023/03/04 06:57:06;;;;;;;56.08;41.45;;;205.00;2252.80;;;;;;5053154;28;20382;-79
2023/03/04 06:59:31;;;;;;;54.92;42.95;;;205.00;2252.80;;;;;;5052735;28;20032;-81
2023/03/04 07:01:57;;;;;;;52.63;40.22;;;205.10;2252.80;;;;;;5053072;28;20043;-80
2023/03/04 07:04:23;;;;;;;50.55;40.55;;;205.10;2252.80;;;;;;5052445;28;20033;-82
2023/03/04 07:06:50;;;;;;;55.55;41.95;;;205.00;2252.80;;;;;;5053680;28;20052;-80
2023/03/04 07:09:16;;;;;;;60.65;45.88;;;205.10;2252.80;;;;;;5052640;28;20041;-82
2023/03/04 07:11:42;;;;;;;59.22;45.10;;;204.90;2252.80;;;;;;5053398;28;20025;-81
2023/03/04 07:14:08;;;;;;;60.28;44.17;;;205.20;2252.80;;;;;;5053378;28;20025;-79
2023/03/04 07:16:34;;;;;;;70.07;48.05;;;205.30;2252.80;;;;;;5052805;28;20029;-80
2023/03/04 07:19:00;;;;;;;71.25;50.90;;;205.40;2252.80;;;;;;5053197;28;20036;-81
2023/03/04 07:21:28;;;;;;;73.85;53.65;;;205.40;2252.80;;;;;;5053133;28;20482;-81
2023/03/04 07:23:53;;;;;;;74.43;50.00;;;205.40;2252.80;;;;;;5052606;28;20033;-81
2023/03/04 07:26:19;;;;;;;75.55;52.17;;;205.40;2252.80;;;;;;5053005;28;20043;-82
2023/03/04 07:28:45;;;;;;;65.57;46.60;;;205.50;2252.80;;;;;;5052937;28;20029;-80
2023/03/04 07:31:15;;;;;;;68.82;46.55;;;205.50;2252.80;;;;;;5054021;28;20033;-80
2023/03/04 07:33:41;;;;;;;55.55;41.83;;;205.40;2252.80;;;;;;5052718;28;20032;-81
2023/03/04 07:36:07;;;;;;;55.13;41.00;;;205.40;2252.80;;;;;;5052871;28;20033;-79
2023/03/04 07:38:33;;;;;;;53.03;39.65;;;205.30;2252.80;;;;;;5052578;28;20108;-81
2023/03/04 07:40:59;;;;;;;51.85;39.83;;;205.30;2252.80;;;;;;5052445;28;20497;-81
2023/03/04 07:43:24;;;;;;;58.95;42.83;;;205.40;2252.80;;;;;;5052786;28;20432;-80
2023/03/04 07:45:50;;;;;;;65.20;47.15;;;205.60;2252.80;;;;;;5053837;28;20112;-81
2023/03/04 07:48:16;;;;;;;64.43;45.38;;;205.50;2252.80;;;;;;5052713;28;20122;-80
2023/03/04 07:50:42;;;;;;;63.65;42.70;;;205.60;2252.80;;;;;;5052048;28;20021;-81
2023/03/04 07:53:07;;;;;;;66.82;45.72;;;205.60;2252.80;;;;;;5052299;28;20393;-81
2023/03/04 07:55:33;;;;;;;57.97;45.75;;;205.40;2252.80;;;;;;5051997;28;20032;-79
2023/03/04 07:57:59;;;;;;;62.15;46.22;;;205.50;2252.80;;;;;;5051756;28;20029;-81
2023/03/04 08:00:25;;;;;;;56.13;39.30;;;205.60;2252.80;;;;;;5052536;28;20036;-80
2023/03/04 08:02:51;;;;;;;65.03;46.53;;;205.50;2252.80;;;;;;5053783;28;20028;-80
2023/03/04 08:05:16;;;;;;;52.47;40.85;;;205.50;2252.80;;;;;;5052126;28;20020;-80
2023/03/04 08:07:42;;;;;;;69.00;51.67;;;205.60;2252.80;;;;;;5053405;28;20056;-81
2023/03/04 08:10:09;;;;;;;58.33;45.00;;;205.70;2252.80;;;;;;5052417;28;20025;-80
2023/03/04 08:12:35;;;;;;;61.25;41.80;;;230.50;2252.80;;;;;;5052067;28;20390;-80
2023/03/04 08:15:05;;;;;;;132.25;89.50;;;230.40;2252.80;;;;;;5052318;28;20028;-81
2023/03/04 08:17:30;;;;;;;71.72;51.72;;;230.60;2252.80;;;;;;5053725;28;20025;-81
2023/03/04 08:19:56;;;;;;;69.07;46.35;;;230.60;2252.80;;;;;;5052062;28;20391;-82
2023/03/04 08:22:22;;;;;;;62.25;46.80;;;230.50;2252.80;;;;;;5052267;28;20033;-81
2023/03/04 08:24:48;;;;;;;60.72;43.67;;;230.60;2252.80;;;;;;5053274;28;20493;-82
2023/03/04 08:27:13;;;;;;;56.97;43.38;;;230.60;2252.80;;;;;;5051925;28;20029;-82
2023/03/04 08:29:40;;;;;;;54.13;40.70;;;;;;;;;;5053538;28;20037;-81
2023/03/04 08:32:06;;;;;;;60.03;41.55;;;;;;;;;;5052138;28;20111;-80
2023/03/04 08:34:32;;;;;;;60.58;41.30;;;;;;;;;;5051881;28;20025;-80
2023/03/04 08:36:58;;;;;;;65.85;42.60;;;;;;;;;;5053812;28;20427;-81
2023/03/04 08:39:24;;;;;;;59.67;41.28;;;230.90;2252.80;;;;;;5052407;28;20589;-81
2023/03/04 08:41:50;;;;;;;65.40;41.15;;;230.80;2252.80;;;;;;5051808;28;20033;-81
2023/03/04 08:44:16;;;;;;;59.95;39.05;;;230.90;2252.80;;;;;;5052045;28;20021;-81
2023/03/04 08:46:42;;;;;;;50.90;35.92;;;230.80;2252.80;;;;;;5052262;28;20029;-80
2023/03/04 08:49:11;;;;;;;53.80;35.25;;;230.90;2252.80;;;;;;5051729;28;20021;-82
2023/03/04 08:51:37;;;;;;;60.25;38.17;;;230.90;2252.80;;;;;;5052076;28;20036;-80
2023/03/04 08:54:04;;;;;;;55.35;40.33;;;231.00;2252.80;;;;;;5051925;28;20029;-81
2023/03/04 08:56:29;;;;;;;57.60;39.63;;;231.10;2252.80;;;;;;5052690;28;20057;-80
2023/03/04 08:58:55;;;;;;;54.78;37.88;;;231.10;2252.80;;;;;;5051875;28;20059;-79
2023/03/04 09:01:21;;;;;;;61.95;39.80;;;231.20;2252.80;;;;;;5051678;28;20382;-79
2023/03/04 09:03:47;;;;;;;59.67;41.20;;;231.30;2252.80;;;;;;5051777;28;20577;-79
2023/03/04 09:06:15;;;;;;;61.75;43.20;;;256.00;2252.80;;;;;;5051705;28;20074;-79
2023/03/04 09:08:42;;;;;;;61.85;41.40;;;231.30;2252.80;;;;;;5052863;28;20052;-80
2023/03/04 09:11:07;;;;;;;53.75;35.55;;;231.30;2252.80;;;;;;5056942;28;20138;-79
2023/03/04 09:13:34;;;;;;;60.13;42.55;;;231.20;2252.80;;;;;;5054463;28;20108;-82
2023/03/04 09:16:00;;;;;;;57.83;37.58;;;231.20;2252.80;;;;;;5056033;28;20178;-79
2023/03/04 09:18:26;;;;;;;50.25;34.05;;;231.30;2252.80;;;;;;5054655;28;20457;-81
2023/03/04 09:20:52;;;;;;;65.25;40.63;;;231.20;2252.80;;;;;;5049200;28;20033;-79
2023/03/04 09:23:19;;;;;;;68.65;41.78;;;231.20;2252.80;;;;;;5035207;28;20386;-80
2023/03/04 09:25:46;;;;;;;50.13;34.63;;;231.00;2252.80;;;;;;5035627;28;20025;-81
2023/03/04 09:28:15;;;;;;;50.60;36.13;;;231.20;2252.80;;;;;;5043263;28;20056;-80
2023/03/04 09:30:42;;;;;;;61.88;47.92;;;231.20;2252.80;;;;;;5055917;28;20051;-80
2023/03/04 09:33:08;;;;;;;72.03;49.35;;;231.20;2252.80;;;;;;5054399;28;20032;-80
2023/03/04 09:35:34;;;;;;;56.97;36.30;;;231.20;2252.80;;;;;;5055347;28;20420;-79
2023/03/04 09:38:00;;;;;;;57.20;34.50;;;231.30;2252.80;;;;;;5055084;28;20025;-80
2023/03/04 09:40:30;;;;;;;53.55;34.05;;;256.10;2252.80;;;;;;5055015;28;20056;-80
2023/03/04 09:43:04;;;;;;;71.50;47.40;;;256.20;2252.80;;;;;;5055063;28;20466;-81
2023/03/04 09:45:39;;;;;;;61.58;40.40;;;256.10;2252.80;;;;;;5056394;28;20100;-79
2023/03/04 09:48:08;;;;;;;111.97;72.38;;;256.40;2252.80;;;;;;5055170;28;20036;-80
2023/03/04 09:50:44;;;;;;;91.95;59.97;;;256.50;2252.80;;;;;;5054951;28;20037;-80
2023/03/04 09:53:16;;;;;;;65.05;42.03;;;256.60;2252.80;;;;;;5054975;28;20025;-78
2023/03/04 09:55:48;;;;;;;69.22;47.15;;;256.70;2252.80;;;;;;5055375;28;20094;-80
2023/03/04 09:58:25;;;;;;;63.47;44.80;;;256.80;2252.80;;;;;;5054373;28;20477;-79
2023/03/04 10:01:00;;;;;;;63.38;42.03;;;256.90;2252.80;;;;;;5055216;28;20029;-81
2023/03/04 10:03:47;;;;;;;64.95;42.38;;;281.60;2278.40;;;;;;5054186;28;20024;-80
2023/03/04 10:06:16;;;;;;;59.25;40.42;;;281.60;2278.40;;;;;;5055113;28;20053;-79
2023/03/04 10:08:57;;;;;;;60.38;40.88;;;281.60;2278.40;;;;;;5054960;28;20131;-80
2023/03/04 10:12:03;;;;;;;56.95;37.35;;;281.70;2278.40;;;;;;5054722;28;20099;-79
2023/03/04 10:14:36;;;;;;;57.65;39.60;;;281.70;2278.40;;;;;;5068306;28;20017;-77
2023/03/04 10:17:12;;;;;;;64.93;42.08;;;281.90;2278.40;;;;;;5076020;28;20049;-76
2023/03/04 10:19:59;;;;;;;59.45;36.30;;;;;;;;;;5067309;28;20497;-78
2023/03/04 10:22:33;;;;;;;81.15;51.15;;;282.30;2278.40;;;;;;5054984;28;20032;-78
2023/03/04 10:25:27;;;;;;;55.50;36.53;;;282.20;2278.40;;;;;;5054559;28;20025;-77
2023/03/04 10:28:01;;;;;;;46.05;28.88;;;282.20;2278.40;;;;;;5051124;28;20040;-78
2023/03/04 10:31:01;;;;;;;48.20;32.42;;;281.80;2278.40;;;;;;5054281;28;20123;-78
2023/03/04 10:33:36;;;;;;;45.95;30.10;;;281.70;2278.40;;;;;;5053936;28;20029;-78
2023/03/04 10:36:13;;;;;;;43.00;29.70;;;281.70;2278.40;;;;;;5055323;28;20104;-78
2023/03/04 10:38:41;;;;;;;54.70;35.58;;;281.60;2278.40;;;;;;5054080;28;20032;-78
2023/03/04 10:41:16;;;;;;;55.92;36.78;;;281.70;2278.40;;;;;;5053585;28;20035;-78
2023/03/04 10:43:45;;;;;;;67.68;42.08;;;281.70;2278.40;;;;;;5053852;28;20029;-80
2023/03/04 10:46:11;;;;;;;57.08;39.35;;;281.80;2278.40;;;;;;5053493;28;20466;-81
2023/03/04 10:48:40;;;;;;;53.00;36.28;;;281.80;2278.40;;;;;;5053758;28;20035;-80
2023/03/04 10:51:20;;;;;;;53.45;34.15;;;281.80;2278.40;;;;;;5054791;28;20033;-79
2023/03/04 10:53:50;;;;;;;63.35;38.83;;;281.80;2278.40;;;;;;5053477;28;20021;-78
2023/03/04 10:56:39;;;;;;;61.80;41.38;;;281.80;2278.40;;;;;;5053676;28;20028;-76
2023/03/04 10:59:34;;;;;;;63.00;40.33;;;281.70;2278.40;;;;;;5053543;28;20021;-75
2023/03/04 11:02:22;;;;;;;61.83;40.13;;;281.60;2278.40;;;;;;5053149;28;20367;-76
2023/03/04 11:05:15;;;;;;;85.68;51.33;;;256.90;2252.80;;;;;;5047518;28;20037;-76
2023/03/04 11:07:55;;;;;;;103.00;63.28;;;256.90;2252.80;;;;;;5054057;28;20475;-75
2023/03/04 11:10:35;;;;;;;110.28;72.20;;;281.60;2278.40;;;;;;5053403;28;20036;-75
2023/03/04 11:13:11;;;;;;;74.20;50.30;;;281.60;2278.40;;;;;;5054656;28;20021;-76
2023/03/04 11:15:56;;;;;;;70.07;44.38;;;256.90;2252.80;;;;;;5053969;28;20429;-76
2023/03/04 11:18:29;;;;;;;85.75;49.00;;;256.90;2252.80;;;;;;5053254;28;20028;-78
2023/03/04 11:20:55;;;;;;;;;;;256.90;2252.80;;;;;;5053396;28;20029;-76
2023/03/04 11:23:36;;;;;;;90.45;54.88;;;256.90;2252.80;;;;;;5052651;28;19916;-77
2023/03/04 11:26:09;;;;;;;245.77;119.05;;;256.90;2252.80;;;;;;5054559;28;20052;-77
2023/03/04 11:28:41;;;;;;;;;;;256.80;2252.80;;;;;;5053339;28;20032;-76
2023/03/04 11:31:14;;;;;;;111.40;62.38;;;256.80;2252.80;;;;;;5069534;28;19905;-77
2023/03/04 11:34:32;;;;;;;112.90;65.43;;;256.80;2252.80;;;;;;5051834;28;20106;-78
2023/03/04 11:37:11;;;;;;;93.75;55.03;;;256.80;2252.80;;;;;;5060227;28;20079;-76
2023/03/04 11:39:51;;;;;;;77.22;51.38;;;256.70;2252.80;;;;;;5052698;28;20551;-76
2023/03/04 11:42:26;;;;;;;74.70;42.95;;;256.70;2252.80;;;;;;5053736;28;20497;-76
2023/03/04 11:44:51;;;;;;;67.85;45.75;;;256.70;2252.80;;;;;;5053985;28;20025;-76
2023/03/04 11:47:23;;;;;;;75.95;48.70;;;256.70;2252.80;;;;;;5052699;28;20040;-76
2023/03/04 11:50:13;;;;;;;84.35;53.15;;;256.60;2252.80;;;;;;5051790;28;20068;-76
2023/03/04 11:53:16;;;;;;;81.60;51.05;;;256.60;2252.80;;;;;;5052483;28;20067;-77
2023/03/04 11:55:47;;;;;;;71.65;47.55;;;256.60;2252.80;;;;;;5051570;28;20025;-80
2023/03/04 11:58:40;;;;;;;77.40;50.30;;;256.60;2252.80;;;;;;5051751;28;20041;-79
2023/03/04 12:01:26;;;;;;;80.32;47.55;;;256.60;2252.80;;;;;;5050093;28;20057;-77
2023/03/04 12:04:20;;;;;;;69.00;44.35;;;256.70;2252.80;;;;;;5051122;28;20646;-78
2023/03/04 12:07:08;;;;;;;86.25;55.13;;;256.70;2252.80;;;;;;5051337;28;20029;-77
2023/03/04 12:10:00;;;;;;;73.18;48.03;;;256.60;2252.80;;;;;;5052199;28;20049;-77